Accueil
METAR-TAF:

METAR-TAF

Aéroports :

Aéroport Michel-Pouliot de Gaspé

Gaspé, Québec, Canada

latitude: 48-46N, longitude: 064-29W, altitude: 33 m

Observation

Le bulletin a été fait il y a 56 minutes, à 01:00 UTC
Vent 8 kt de ouest/nord-ouest
Température 1°C
Humidité 55%
Pression 1003 hPa
Visibilité: 24.1 km
Ciel couvert à une hauteur de 3500 ft

METAR: CYGP 220100Z 30008KT 15SM OVC035 01/M07 A2962 RMK SC8 SLP034

Heure: 21:56 (01:56 UTC)

Prévision

Le bulletin a été fait il y a 18 minutes, à 01:38 UTC
Prévision valable du 22 à 02 UTC au 22 à 14 UTC
Vent 10 kt de ouest/nord-ouest
Visibilité: 10 km
Nuages fragmentés à une hauteur de 4000 ft

TAF: CYGP 220138Z 2202/2214 30010KT P6SM BKN040 RMK NXT FCST BY 220800Z

Observations et prévisions météorologiques de plus de 4000 aéroports (messages METAR et TAF).

Les stations disponibles sont représentées par des disques jaunes et rouges sur la carte.

Passer la souris dessus pour voir le nom de la station.

Cliquer dessus pour voir les observations et prévisions météorologiques.

Pour changer de carte: cliquez sur les boutons verts avec une croix noire pour zoomer, sur le bouton vert avec un tiret pour effectuer un zoom arrière, ou sur les flèches vertes pour les cartes adjacentes.


METAR-TAF: